Time;durP1;ratioP1;P1;durP2;ratioP2;P2;SDS_P1;SDS_P2;PMS_P1;PMS_P2;Temp;Humidity;BMP_temperature;BMP_pressure;BME280_temperature;BME280_humidity;BME280_pressure;Samples;Min_cycle;Max_cycle;Signal;HPM_P1;HPM_P2
2022/09/12 00:01:26;;;;;;;19.70;10.70;;;;;;;12.53;100.00;101670.44;5286540;28;20049;-73
2022/09/12 00:03:59;;;;;;;20.05;11.85;;;;;;;12.51;100.00;101668.91;5285984;28;20015;-73
2022/09/12 00:06:32;;;;;;;22.23;12.23;;;;;;;12.51;100.00;101669.75;5282638;28;20028;-73
2022/09/12 00:09:07;;;;;;;18.70;11.90;;;;;;;12.51;100.00;101671.59;5276008;28;20031;-73
2022/09/12 00:11:40;;;;;;;22.10;11.55;;;;;;;12.48;100.00;101659.28;5286197;28;20542;-73
2022/09/12 00:14:14;;;;;;;21.75;11.90;;;;;;;12.48;100.00;101666.53;5285566;28;20072;-72
2022/09/12 00:16:45;;;;;;;21.10;12.10;;;;;;;12.44;100.00;101668.69;5275236;28;20027;-73
2022/09/12 00:19:15;;;;;;;19.20;11.38;;;;;;;12.38;100.00;101664.78;5280269;28;20381;-73
2022/09/12 00:21:46;;;;;;;21.73;11.48;;;;;;;12.33;100.00;101663.56;5286332;28;20101;-73
2022/09/12 00:24:16;;;;;;;16.48;11.18;;;;;;;12.28;100.00;101666.72;5269262;28;20051;-73
2022/09/12 00:26:47;;;;;;;18.30;10.95;;;;;;;12.22;100.00;101670.06;5275311;28;20446;-73
2022/09/12 00:29:21;;;;;;;18.30;11.65;;;;;;;12.17;100.00;101667.84;5272120;28;20028;-73
2022/09/12 00:31:51;;;;;;;20.13;11.18;;;;;;;12.14;100.00;101654.69;5286163;28;20025;-73
2022/09/12 00:34:22;;;;;;;24.58;12.60;;;;;;;12.15;100.00;101650.19;5271381;28;20092;-73
2022/09/12 00:36:52;;;;;;;17.98;9.82;;;;;;;12.10;100.00;101650.66;5285993;28;20036;-74
2022/09/12 00:39:22;;;;;;;15.27;8.10;;;;;;;12.07;100.00;101648.25;5285608;28;20481;-73
2022/09/12 00:41:53;;;;;;;12.48;8.95;;;;;;;12.07;100.00;101650.09;5285874;28;20023;-73
2022/09/12 00:44:23;;;;;;;15.93;10.43;;;;;;;12.06;100.00;101643.88;5276983;28;20027;-73
2022/09/12 00:46:58;;;;;;;15.80;9.90;;;;;;;12.04;100.00;101643.19;5280496;28;20036;-73
2022/09/12 00:49:31;;;;;;;16.77;9.23;;;;;;;12.00;100.00;101639.13;5286339;28;20035;-73
2022/09/12 00:52:07;;;;;;;17.17;9.85;;;;;;;11.98;100.00;101645.66;5267504;28;20511;-73
2022/09/12 00:54:45;;;;;;;19.38;10.93;;;;;;;11.96;100.00;101643.13;5264350;28;20411;-73
2022/09/12 00:57:17;;;;;;;16.65;9.55;;;;;;;11.95;100.00;101649.53;5272494;28;20027;-73
2022/09/12 00:59:52;;;;;;;42.40;10.07;;;;;;;11.94;100.00;101639.72;5286665;28;20369;-73
2022/09/12 01:02:23;;;;;;;16.25;9.77;;;;;;;11.90;100.00;101633.00;5276874;28;20024;-73
2022/09/12 01:04:54;;;;;;;14.20;8.68;;;;;;;11.87;100.00;101633.31;5269510;28;20032;-73
2022/09/12 01:07:25;;;;;;;14.07;10.02;;;;;;;11.87;100.00;101634.16;5288907;28;20023;-73
2022/09/12 01:09:56;;;;;;;22.83;9.05;;;;;;;11.87;100.00;101630.63;5282441;28;20081;-73
2022/09/12 01:12:26;;;;;;;148.95;18.67;;;;;;;11.85;100.00;101633.47;5260629;28;20140;-73
2022/09/12 01:14:57;;;;;;;118.40;15.13;;;;;;;11.79;100.00;101634.03;5282354;28;20027;-73
2022/09/12 01:17:36;;;;;;;210.77;13.55;;;;;;;11.73;100.00;101631.97;5286883;28;20115;-73
2022/09/12 01:20:28;;;;;;;57.90;11.30;;;;;;;11.66;100.00;101637.13;5265824;28;20567;-73
2022/09/12 01:23:41;;;;;;;17.92;10.65;;;;;;;11.61;100.00;101625.16;5285030;28;20027;-73
2022/09/12 01:26:11;;;;;;;21.85;12.50;;;;;;;11.62;100.00;101634.91;5270767;28;20028;-72
2022/09/12 01:29:08;;;;;;;18.77;10.65;;;;;;;11.64;100.00;101632.91;5281307;28;20028;-72
2022/09/12 01:31:51;;;;;;;19.88;11.07;;;;;;;11.62;100.00;101625.00;5278263;28;20059;-72
2022/09/12 01:34:28;;;;;;;19.48;12.45;;;;;;;11.62;100.00;101626.84;5288827;28;20474;-74
2022/09/12 01:37:16;;;;;;;20.48;10.88;;;;;;;11.65;100.00;101623.84;5289836;28;20030;-73
2022/09/12 01:39:53;;;;;;;16.38;10.23;;;;;;;11.66;100.00;101606.72;5289199;28;20036;-72
2022/09/12 01:42:52;;;;;;;19.77;10.63;;;;;;;11.67;100.00;101600.34;5289706;28;20677;-72
2022/09/12 01:45:31;;;;;;;15.15;9.27;;;;;;;11.71;100.00;101600.88;5288927;28;20035;-72
2022/09/12 01:48:07;;;;;;;18.02;10.82;;;;;;;11.71;100.00;101603.56;5289362;28;20020;-73
2022/09/12 01:50:49;;;;;;;10.02;6.20;;;;;;;11.67;100.00;101601.19;5275398;28;20059;-73
2022/09/12 01:53:26;;;;;;;12.65;8.25;;;;;;;11.62;100.00;101597.28;5289292;28;20023;-73
2022/09/12 01:56:06;;;;;;;15.82;4.85;;;;;;;11.59;100.00;101595.72;5288942;28;20092;-73
2022/09/12 01:59:14;;;;;;;12.00;6.97;;;;;;;11.53;100.00;101593.66;5274837;28;20500;-73
2022/09/12 02:01:53;;;;;;;15.50;9.60;;;;;;;11.51;100.00;101586.78;5289208;28;20035;-74
2022/09/12 02:04:28;;;;;;;14.93;7.95;;;;;;;11.49;100.00;101581.53;5288844;28;20027;-73
2022/09/12 02:07:09;;;;;;;16.05;10.15;;;;;;;11.51;100.00;101578.72;5268147;28;20028;-74
2022/09/12 02:10:17;;;;;;;23.92;11.18;;;;;;;11.53;100.00;101577.53;5284415;28;20042;-74
2022/09/12 02:12:55;;;;;;;13.20;8.00;;;;;;;11.50;100.00;101577.88;5288842;28;20069;-73
2022/09/12 02:15:37;;;;;;;20.10;10.50;;;;;;;11.47;100.00;101574.63;5286837;28;20027;-74
2022/09/12 02:18:13;;;;;;;18.40;9.88;;;;;;;11.44;100.00;101570.41;5283526;28;20031;-74
2022/09/12 02:20:46;;;;;;;12.38;7.50;;;;;;;11.43;100.00;101571.41;5267893;28;20558;-73
2022/09/12 02:23:38;;;;;;;11.15;6.50;;;;;;;11.39;100.00;101570.84;5289150;28;20031;-74
2022/09/12 02:26:31;;;;;;;15.10;7.07;;;;;;;11.34;100.00;101580.38;5283534;28;20103;-74
2022/09/12 02:29:03;;;;;;;15.90;8.32;;;;;;;11.34;100.00;101575.00;5281021;28;20035;-73
2022/09/12 02:31:46;;;;;;;16.80;10.88;;;;;;;11.38;100.00;101568.34;5276607;28;20082;-73
2022/09/12 02:34:39;;;;;;;20.63;11.57;;;;;;;11.42;100.00;101572.41;5273917;28;20031;-73
2022/09/12 02:37:32;;;;;;;19.73;11.23;;;;;;;11.42;100.00;101569.72;5274895;28;20016;-73
2022/09/12 02:40:05;;;;;;;17.85;10.43;;;;;;;11.38;100.00;101574.56;5288370;28;20024;-73
2022/09/12 02:42:36;;;;;;;19.80;10.13;;;;;;;11.34;100.00;101572.31;5288376;28;20559;-73
2022/09/12 02:45:08;;;;;;;17.27;9.95;;;;;;;11.28;100.00;101573.78;5287300;28;20023;-74
2022/09/12 02:48:03;;;;;;;17.85;10.55;;;;;;;11.26;100.00;101574.94;5274953;28;20024;-75
2022/09/12 02:50:34;;;;;;;15.63;8.93;;;;;;;11.22;100.00;101569.03;5274517;28;20035;-73
2022/09/12 02:53:06;;;;;;;14.63;8.18;;;;;;;11.21;100.00;101569.19;5288300;28;20019;-73
2022/09/12 02:55:39;;;;;;;19.70;11.02;;;;;;;11.22;100.00;101565.50;5273744;28;20400;-73
2022/09/12 02:58:22;;;;;;;17.83;9.68;;;;;;;11.22;100.00;101562.81;5274356;28;20024;-73
2022/09/12 03:00:59;;;;;;;18.00;10.60;;;;;;;11.23;100.00;101561.81;5278084;28;20105;-73
2022/09/12 03:03:52;;;;;;;14.10;9.18;;;;;;;11.23;100.00;101561.81;5284876;28;20027;-72
2022/09/12 03:06:49;;;;;;;10.60;6.28;;;;;;;11.21;100.00;101553.09;5273241;28;20409;-73
2022/09/12 03:09:42;;;;;;;12.88;8.13;;;;;;;11.16;100.00;101558.91;5287424;28;20387;-73
2022/09/12 03:12:29;;;;;;;15.55;8.10;;;;;;;11.13;100.00;101554.66;5267091;28;20059;-73
2022/09/12 03:15:34;;;;;;;42.50;7.30;;;;;;;11.12;100.00;101555.66;5285595;28;20350;-73
2022/09/12 03:18:31;;;;;;;22.33;8.18;;;;;;;11.08;100.00;101553.44;5273627;28;20031;-74
2022/09/12 03:21:15;;;;;;;13.80;8.73;;;;;;;11.05;100.00;101545.72;5274102;28;20540;-74
2022/09/12 03:24:10;;;;;;;14.05;9.25;;;;;;;11.05;100.00;101551.09;5287658;28;20108;-74
2022/09/12 03:26:59;;;;;;;13.02;8.13;;;;;;;11.04;100.00;101547.53;5266899;28;20489;-73
2022/09/12 03:29:30;;;;;;;11.77;7.47;;;;;;;11.02;100.00;101551.38;5271959;28;20027;-73
2022/09/12 03:32:01;;;;;;;12.05;6.80;;;;;;;11.02;100.00;101551.38;5287601;28;20030;-73
2022/09/12 03:34:32;;;;;;;10.18;6.57;;;;;;;11.00;100.00;101548.00;5271068;28;20388;-74
2022/09/12 03:37:03;;;;;;;15.55;7.72;;;;;;;11.02;100.00;101544.16;5273683;28;20077;-73
2022/09/12 03:39:33;;;;;;;11.55;6.85;;;;;;;11.01;100.00;101550.53;5279149;28;20081;-73
2022/09/12 03:42:04;;;;;;;10.07;5.43;;;;;;;11.00;100.00;101548.84;5282423;28;20473;-73
2022/09/12 03:44:34;;;;;;;9.25;6.13;;;;;;;10.95;100.00;101545.78;5286707;28;20465;-73
2022/09/12 03:47:04;;;;;;;10.07;6.82;;;;;;;10.92;100.00;101540.69;5282669;28;20019;-73
2022/09/12 03:49:35;;;;;;;9.68;6.10;;;;;;;10.88;100.00;101532.09;5276680;28;20030;-73
2022/09/12 03:52:05;;;;;;;11.60;7.47;;;;;;;10.89;100.00;101538.31;5270317;28;20047;-72
2022/09/12 03:54:36;;;;;;;10.90;7.60;;;;;;;10.88;100.00;101540.16;5286009;28;20020;-73
2022/09/12 03:57:06;;;;;;;11.77;7.35;;;;;;;10.93;100.00;101536.16;5286618;28;20039;-72
2022/09/12 03:59:37;;;;;;;14.65;8.60;;;;;;;10.95;100.00;101535.03;5272909;28;20031;-73
2022/09/12 04:02:10;;;;;;;15.55;9.30;;;;;;;10.95;100.00;101529.66;5286715;28;20027;-73
2022/09/12 04:04:42;;;;;;;16.23;8.93;;;;;;;10.95;100.00;101528.81;5286095;28;20024;-73
2022/09/12 04:07:12;;;;;;;10.63;6.43;;;;;;;10.92;100.00;101526.44;5286653;28;20050;-73
2022/09/12 04:09:42;;;;;;;12.20;7.20;;;;;;;10.88;100.00;101528.56;5286286;28;20062;-71
2022/09/12 04:12:13;;;;;;;13.90;8.07;;;;;;;10.85;100.00;101523.53;5276424;28;20034;-71
2022/09/12 04:14:44;;;;;;;20.85;10.13;;;;;;;10.87;100.00;101516.16;5282086;28;20023;-71
2022/09/12 04:17:15;;;;;;;20.77;10.20;;;;;;;10.89;100.00;101524.88;5274791;28;20381;-71
2022/09/12 04:19:45;;;;;;;17.23;8.75;;;;;;;10.91;100.00;101516.69;5278838;28;20031;-72
2022/09/12 04:22:15;;;;;;;15.07;8.68;;;;;;;10.88;100.00;101523.19;5265099;28;20114;-71
2022/09/12 04:24:46;;;;;;;26.45;11.65;;;;;;;10.89;100.00;101520.38;5267490;28;20385;-71
2022/09/12 04:27:16;;;;;;;22.13;11.82;;;;;;;10.93;100.00;101515.53;5286557;28;20030;-71
2022/09/12 04:29:47;;;;;;;19.30;9.30;;;;;;;10.96;100.00;101520.63;5278200;28;20027;-72
2022/09/12 04:32:17;;;;;;;16.17;8.55;;;;;;;10.95;100.00;101523.47;5260934;28;20020;-72
2022/09/12 04:34:48;;;;;;;21.30;11.00;;;;;;;10.93;100.00;101520.91;5273947;28;20046;-72
2022/09/12 04:37:18;;;;;;;22.45;10.82;;;;;;;10.94;100.00;101517.22;5269113;28;20046;-72
2022/09/12 04:39:50;;;;;;;22.05;11.45;;;;;;;10.94;100.00;101522.59;5275986;28;20032;-72
2022/09/12 04:42:21;;;;;;;21.17;10.48;;;;;;;10.92;100.00;101516.53;5254551;28;20016;-71
2022/09/12 04:44:51;;;;;;;75.85;11.68;;;;;;;10.89;100.00;101509.66;5285803;28;20115;-71
2022/09/12 04:47:22;;;;;;;60.67;11.48;;;;;;;10.83;100.00;101510.22;5285469;28;20023;-71
2022/09/12 04:49:52;;;;;;;49.33;10.80;;;;;;;10.82;100.00;101523.81;5274595;28;20587;-71
2022/09/12 04:52:23;;;;;;;21.35;10.50;;;;;;;10.77;100.00;101524.25;5271875;28;20358;-71
2022/09/12 04:54:53;;;;;;;22.52;12.00;;;;;;;10.75;100.00;101520.91;5281186;28;20385;-70
2022/09/12 04:57:24;;;;;;;36.80;16.70;;;;;;;10.77;100.00;101516.22;5271309;28;20473;-71
2022/09/12 04:59:55;;;;;;;31.25;13.40;;;;;;;10.80;100.00;101515.09;5287391;28;20015;-70
2022/09/12 05:02:25;;;;;;;28.80;14.38;;;;;;;10.77;100.00;101516.22;5279138;28;20028;-70
2022/09/12 05:04:56;;;;;;;24.50;13.32;;;;;;;10.76;100.00;101516.38;5271109;28;20024;-70
2022/09/12 05:07:26;;;;;;;27.83;13.65;;;;;;;10.77;100.00;101521.56;5277398;28;20306;-71
2022/09/12 05:09:57;;;;;;;25.50;12.32;;;;;;;10.78;100.00;101519.75;5282034;28;20020;-71
2022/09/12 05:12:27;;;;;;;24.30;13.32;;;;;;;10.78;100.00;101525.09;5278336;28;20475;-71
2022/09/12 05:14:58;;;;;;;23.67;12.57;;;;;;;10.82;100.00;101523.81;5286620;28;20084;-71
2022/09/12 05:17:29;;;;;;;40.10;12.57;;;;;;;10.80;100.00;101523.13;5286167;28;20542;-72
2022/09/12 05:19:59;;;;;;;21.77;11.10;;;;;;;10.77;100.00;101526.09;5283309;28;20096;-71
2022/09/12 05:22:30;;;;;;;22.30;12.27;;;;;;;10.75;100.00;101533.47;5275343;28;20162;-71
2022/09/12 05:25:00;;;;;;;55.85;14.93;;;;;;;10.72;100.00;101531.94;5268133;28;20027;-69
2022/09/12 05:27:30;;;;;;;23.55;12.75;;;;;;;10.71;100.00;101527.56;5286971;28;20028;-71
2022/09/12 05:30:01;;;;;;;26.75;13.43;;;;;;;10.71;100.00;101527.56;5277351;28;20268;-70
2022/09/12 05:32:31;;;;;;;19.70;10.70;;;;;;;10.74;100.00;101524.56;5283344;28;20564;-71
2022/09/12 05:35:02;;;;;;;24.10;13.23;;;;;;;10.75;100.00;101525.44;5284341;28;20035;-71
2022/09/12 05:37:32;;;;;;;21.15;12.07;;;;;;;10.74;100.00;101527.22;5273871;28;20431;-70
2022/09/12 05:40:06;;;;;;;17.30;9.85;;;;;;;10.74;100.00;101534.44;5279345;28;20089;-71
2022/09/12 05:42:36;;;;;;;23.92;12.45;;;;;;;10.75;100.00;101545.06;5283985;28;20472;-71
2022/09/12 05:45:07;;;;;;;19.35;10.48;;;;;;;10.76;100.00;101540.53;5279029;28;20024;-71
2022/09/12 05:47:38;;;;;;;16.60;8.52;;;;;;;10.77;100.00;101555.63;5276649;28;20027;-71
2022/09/12 05:50:09;;;;;;;17.95;9.75;;;;;;;10.80;100.00;101553.50;5281408;28;20035;-71
2022/09/12 05:52:40;;;;;;;29.02;12.63;;;;;;;10.88;100.00;101558.94;5276647;28;20050;-71
2022/09/12 05:55:11;;;;;;;27.42;13.20;;;;;;;10.94;100.00;101553.97;5274776;28;20023;-71
2022/09/12 05:57:44;;;;;;;41.58;12.23;;;;;;;10.92;100.00;101561.34;5258852;28;20035;-71
2022/09/12 06:00:16;;;;;;;28.90;12.65;;;;;;;10.87;100.00;101559.94;5268140;28;20495;-70
2022/09/12 06:03:05;;;;;;;24.35;13.43;;;;;;;10.85;100.00;101556.56;5286039;28;20481;-71
2022/09/12 06:05:36;;;;;;;70.00;16.00;;;;;;;10.87;100.00;101557.25;5273202;28;20431;-71
2022/09/12 06:08:06;;;;;;;64.65;15.90;;;;;;;10.91;100.00;101554.28;5259573;28;20077;-70
2022/09/12 06:10:37;;;;;;;31.73;13.70;;;;;;;10.98;100.00;101566.94;5279482;28;20480;-71
2022/09/12 06:13:07;;;;;;;19.25;10.55;;;;;;;11.12;100.00;101555.66;5282324;28;20038;-71
2022/09/12 06:15:38;;;;;;;19.77;10.80;;;;;;;11.29;100.00;101558.50;5285514;28;20440;-70
2022/09/12 06:18:08;;;;;;;18.65;9.52;;;;;;;11.39;100.00;101554.75;5281072;28;20031;-71
2022/09/12 06:20:39;;;;;;;21.50;9.98;;;;;;;11.52;100.00;101553.53;5266009;28;20028;-70
2022/09/12 06:23:09;;;;;;;19.83;11.52;;;;;;;11.76;100.00;101551.03;5272058;28;20491;-70
2022/09/12 06:25:46;;;;;;;20.00;10.82;;;;;;;12.25;100.00;101546.00;5285115;28;20035;-70
2022/09/12 06:28:16;;;;;;;21.45;11.13;;;;;;;12.87;100.00;101548.44;5266196;28;20035;-70
2022/09/12 06:30:47;;;;;;;21.27;11.20;;;;;;;13.57;100.00;101548.88;5266019;28;20027;-71
2022/09/12 06:33:18;;;;;;;18.73;11.20;;;;;;;14.18;100.00;101544.75;5265930;28;20031;-71
2022/09/12 06:35:49;;;;;;;20.52;12.57;;;;;;;14.90;100.00;101538.38;5261424;28;20078;-71
2022/09/12 06:38:19;;;;;;;17.38;11.75;;;;;;;15.59;100.00;101535.72;5285327;28;20142;-71
2022/09/12 06:40:50;;;;;;;20.90;13.35;;;;;;;16.21;100.00;101530.88;5281237;28;20028;-71
2022/09/12 06:43:20;;;;;;;19.10;11.95;;;;;;;16.70;100.00;101526.72;5260088;28;20034;-71
2022/09/12 06:45:51;;;;;;;21.58;12.18;;;;;;;17.20;100.00;101533.97;5264742;28;20024;-71
2022/09/12 06:48:22;;;;;;;21.00;12.73;;;;;;;17.57;100.00;101540.16;5277968;28;20024;-71
2022/09/12 06:51:09;;;;;;;23.13;13.40;;;;;;;17.65;100.00;101534.59;5266570;28;20020;-71
2022/09/12 06:53:41;;;;;;;20.40;13.25;;;;;;;17.91;100.00;101541.31;5266423;28;20077;-71
2022/09/12 06:56:28;;;;;;;19.38;12.43;;;;;;;18.32;100.00;101539.50;5265664;28;20115;-71
2022/09/12 06:58:59;;;;;;;22.48;12.63;;;;;;;18.78;100.00;101535.34;5282476;28;20077;-70
2022/09/12 07:01:31;;;;;;;18.45;11.93;;;;;;;19.11;100.00;101535.44;5274519;28;20032;-71
2022/09/12 07:04:03;;;;;;;19.08;12.38;;;;;;;19.46;100.00;101533.38;5266649;28;20028;-71
2022/09/12 07:06:37;;;;;;;19.65;12.27;;;;;;;19.76;100.00;101525.69;5266251;28;20046;-71
2022/09/12 07:09:12;;;;;;;16.63;12.25;;;;;;;19.82;100.00;101530.28;5264615;28;20032;-70
2022/09/12 07:11:44;;;;;;;20.98;12.10;;;;;;;19.96;100.00;101539.28;5278936;28;20031;-70
2022/09/12 07:14:15;;;;;;;20.77;10.68;;;;;;;20.14;100.00;101544.06;5276630;28;20398;-70
2022/09/12 07:16:45;;;;;;;21.45;11.85;;;;;;;20.36;100.00;101531.84;5285399;28;20030;-71
2022/09/12 07:19:16;;;;;;;20.60;11.23;;;;;;;20.29;100.00;101528.31;5283909;28;20020;-70
2022/09/12 07:21:47;;;;;;;16.90;10.88;;;;;;;20.47;100.00;101527.66;5283803;28;20027;-70
2022/09/12 07:24:18;;;;;;;20.10;11.23;;;;;;;20.56;100.00;101526.34;5270988;28;20043;-70
2022/09/12 07:26:48;;;;;;;16.27;10.63;;;;;;;20.88;100.00;101526.41;5274533;28;20465;-70
2022/09/12 07:29:19;;;;;;;16.33;10.80;;;;;;;21.19;100.00;101520.16;5264550;28;20028;-70
2022/09/12 07:31:49;;;;;;;19.83;10.50;;;;;;;21.25;100.00;101507.53;5274898;28;20059;-70
2022/09/12 07:34:19;;;;;;;17.83;10.90;;;;;;;21.10;100.00;101510.56;5270129;28;20027;-70
2022/09/12 07:36:50;;;;;;;14.50;9.73;;;;;;;20.84;100.00;101514.28;5285667;28;20023;-70
2022/09/12 07:39:21;;;;;;;12.07;9.02;;;;;;;21.03;100.00;101509.75;5260417;28;20036;-70
2022/09/12 07:41:51;;;;;;;15.82;10.10;;;;;;;21.27;100.00;101514.41;5278801;28;20031;-70
2022/09/12 07:44:22;;;;;;;14.85;9.85;;;;;;;21.73;100.00;101518.69;5263816;28;20030;-70
2022/09/12 07:46:52;;;;;;;12.50;9.23;;;;;;;21.94;100.00;101512.84;5279883;28;20080;-70
2022/09/12 07:49:23;;;;;;;15.00;9.55;;;;;;;22.01;100.00;101520.97;5275858;28;20496;-70
2022/09/12 07:51:53;;;;;;;16.05;9.45;;;;;;;22.11;100.00;101521.31;5281892;28;20114;-70
2022/09/12 07:54:24;;;;;;;12.50;8.43;;;;;;;22.30;100.00;101518.59;5273543;28;20892;-70
2022/09/12 07:56:55;;;;;;;19.92;8.65;;;;;;;22.38;100.00;101518.28;5281632;28;20547;-70
2022/09/12 07:59:26;;;;;;;14.18;8.30;;;;;;;22.27;100.00;101516.31;5274240;28;20024;-70
2022/09/12 08:01:57;;;;;;;11.95;8.25;;;;;;;22.14;100.00;101525.47;5282094;28;20059;-70
2022/09/12 08:04:28;;;;;;;13.68;7.68;;;;;;;22.20;100.00;101521.84;5286623;28;20187;-71
2022/09/12 08:06:59;;;;;;;10.90;7.10;;;;;;;22.42;100.00;101517.59;5285663;28;20123;-70
2022/09/12 08:09:29;;;;;;;10.10;7.38;;;;;;;22.52;100.00;101518.97;5287157;28;20024;-70
2022/09/12 08:12:00;;;;;;;13.68;7.88;;;;;;;22.84;100.00;101523.19;5297008;28;20092;-71
2022/09/12 08:14:31;;;;;;;11.98;7.25;;;;;;;22.57;100.00;101524.56;5299421;28;20065;-70
2022/09/12 08:17:02;;;;;;;9.57;6.97;;;;;;;22.56;100.00;101520.19;5290590;28;20020;-70
2022/09/12 08:19:33;;;;;;;10.60;7.20;;;;;;;22.43;100.00;101513.78;5286268;28;20077;-70
2022/09/12 08:22:04;;;;;;;9.27;6.75;;;;;;;22.58;100.00;101521.59;5287831;28;20050;-70
2022/09/12 08:24:38;;;;;;;11.50;7.10;;;;;;;22.70;100.00;101519.78;5290959;28;20027;-71
2022/09/12 08:27:08;;;;;;;11.32;7.25;;;;;;;22.72;100.00;101519.53;5305074;28;20023;-71
2022/09/12 08:29:39;;;;;;;10.95;7.47;;;;;;;22.72;100.00;101514.06;5297219;28;20092;-71
2022/09/12 08:32:10;;;;;;;10.13;7.13;;;;;;;23.04;100.00;101513.88;5288349;28;20026;-71
2022/09/12 08:34:40;;;;;;;10.02;6.28;;;;;;;23.39;100.00;101520.25;5283200;28;20023;-71
2022/09/12 08:37:11;;;;;;;10.45;7.10;;;;;;;23.69;100.00;101530.34;5266030;28;20102;-71
2022/09/12 08:39:42;;;;;;;10.00;6.22;;;;;;;24.09;100.00;101522.25;5284330;28;20038;-71
2022/09/12 08:42:32;;;;;;;10.10;6.18;;;;;;;24.06;100.00;101525.47;5270785;28;20077;-71
2022/09/12 08:45:14;;;;;;;11.57;6.32;;;;;;;24.15;100.00;101526.78;5282761;28;20477;-71
2022/09/12 08:47:46;;;;;;;10.60;6.97;;;;;;;24.20;100.00;101518.69;5284173;28;20015;-71
2022/09/12 08:50:20;;;;;;;10.32;6.15;;;;;;;24.40;100.00;101523.78;5280651;28;20028;-71
2022/09/12 08:53:09;;;;;;;12.07;5.47;;;;;;;25.00;100.00;101515.13;5274766;28;20159;-70
2022/09/12 08:55:44;;;;;;;9.80;6.25;;;;;;;24.73;100.00;101516.78;5262367;28;20095;-71
2022/09/12 08:58:15;;;;;;;9.60;5.18;;;;;;;24.99;100.00;101507.94;5277043;28;20023;-71
2022/09/12 09:00:58;;;;;;;10.20;4.90;;;;;;;25.27;100.00;101512.59;5273599;28;20034;-71
2022/09/12 09:04:06;;;;;;;8.02;4.60;;;;;;;25.54;100.00;101511.94;5283958;28;20031;-71
2022/09/12 09:06:38;;;;;;;7.40;4.38;;;;;;;25.06;100.00;101510.56;5279590;28;20273;-71
2022/09/12 09:09:34;;;;;;;8.23;4.50;;;;;;;24.95;100.00;101515.03;5275537;28;20051;-71
2022/09/12 09:12:13;;;;;;;9.05;4.60;;;;;;;25.23;100.00;101510.59;5283365;28;20124;-71
2022/09/12 09:15:13;;;;;;;5.55;4.00;;;;;;;25.02;100.00;101507.47;5282050;28;20043;-71
2022/09/12 09:17:48;;;;;;;4.72;2.90;;;;;;;25.36;100.00;101501.22;5283495;28;20042;-72
2022/09/12 09:20:41;;;;;;;7.90;3.50;;;;;;;25.24;100.00;101495.78;5283479;28;20063;-71
2022/09/12 09:23:29;;;;;;;5.45;3.33;;;;;;;25.04;100.00;101496.22;5270072;28;20520;-71
2022/09/12 09:26:25;;;;;;;6.57;2.97;;;;;;;25.26;100.00;101490.88;5282461;28;20027;-71
2022/09/12 09:28:58;;;;;;;;;;;;;;;25.18;100.00;101488.53;5283685;28;20054;-71
2022/09/12 09:31:36;;;;;;;5.85;2.95;;;;;;;25.52;98.07;101479.22;5274782;28;20365;-71
2022/09/12 09:34:21;;;;;;;7.47;3.30;;;;;;;25.36;100.00;101482.00;5265166;28;20019;-71
2022/09/12 09:37:07;;;;;;;6.68;2.85;;;;;;;25.48;100.00;101483.56;5269870;28;20028;-72
2022/09/12 09:39:58;;;;;;;3.92;2.20;;;;;;;25.46;90.96;101476.66;5271522;28;20032;-71
2022/09/12 09:42:48;;;;;;;4.75;2.30;;;;;;;25.77;98.00;101475.25;5245881;28;20532;-71
2022/09/12 09:45:23;;;;;;;2.83;2.47;;;;;;;24.94;92.77;101480.41;5263793;28;20393;-71
2022/09/12 09:48:09;;;;;;;3.45;2.85;;;;;;;25.00;90.94;101471.19;5274479;28;20537;-71
2022/09/12 09:50:41;;;;;;;5.78;2.50;;;;;;;25.26;93.75;101466.19;5267892;28;20122;-71
2022/09/12 09:53:26;;;;;;;5.35;2.25;;;;;;;25.63;88.44;101462.91;5267234;28;20436;-72
2022/09/12 09:56:02;;;;;;;3.35;1.73;;;;;;;25.69;82.59;101454.47;5265217;28;20137;-72
2022/09/12 09:58:34;;;;;;;3.83;1.80;;;;;;;25.17;86.09;101454.78;5267587;28;20031;-72
2022/09/12 10:01:11;;;;;;;3.70;2.20;;;;;;;25.31;84.82;101442.38;5248912;28;20032;-71
2022/09/12 10:03:54;;;;;;;2.38;2.10;;;;;;;25.17;85.96;101446.53;5280482;28;20389;-71
2022/09/12 10:06:29;;;;;;;3.05;2.03;;;;;;;25.17;88.76;101443.78;5267710;28;20481;-71
2022/09/12 10:09:12;;;;;;;4.65;1.95;;;;;;;25.13;89.84;101442.63;5249058;28;20024;-72
2022/09/12 10:11:42;;;;;;;2.92;2.10;;;;;;;25.02;86.92;101438.84;5272753;28;20028;-71
2022/09/12 10:14:34;;;;;;;4.07;1.80;;;;;;;24.94;87.03;101435.66;5283634;28;20034;-72
2022/09/12 10:17:24;;;;;;;4.10;2.00;;;;;;;24.32;86.99;101432.81;5275396;28;20027;-71
2022/09/12 10:19:55;;;;;;;5.78;2.42;;;;;;;24.45;90.52;101435.28;5265586;28;20081;-71
2022/09/12 10:22:28;;;;;;;3.03;2.33;;;;;;;24.46;92.18;101423.25;5266324;28;20107;-72
2022/09/12 10:25:00;;;;;;;6.18;2.28;;;;;;;24.52;93.69;101412.13;5264391;28;20357;-72
2022/09/12 10:27:31;;;;;;;2.65;1.88;;;;;;;24.65;88.46;101419.25;5267522;28;20123;-72
2022/09/12 10:30:06;;;;;;;5.25;2.38;;;;;;;24.70;94.40;101416.59;5266521;28;20032;-71
2022/09/12 10:32:41;;;;;;;3.30;1.90;;;;;;;24.89;93.47;101410.88;5268210;28;20028;-72
2022/09/12 10:35:32;;;;;;;4.13;2.28;;;;;;;25.07;90.57;101415.34;5276098;28;20490;-71
2022/09/12 10:38:06;;;;;;;5.10;2.17;;;;;;;24.90;89.78;101410.63;5266559;28;20479;-72
2022/09/12 10:40:37;;;;;;;3.08;2.10;;;;;;;24.74;86.43;101408.69;5280161;28;20024;-72
2022/09/12 10:43:29;;;;;;;2.55;2.08;;;;;;;25.04;96.51;101406.47;5266814;28;20020;-71
2022/09/12 10:46:18;;;;;;;4.22;2.30;;;;;;;24.84;90.31;101397.06;5276946;28;20016;-71
2022/09/12 10:48:50;;;;;;;6.03;3.03;;;;;;;24.90;89.53;101396.91;5281854;28;20027;-71
2022/09/12 10:51:21;;;;;;;4.97;2.60;;;;;;;25.11;92.94;101395.38;5276033;28;20020;-72
2022/09/12 10:54:12;;;;;;;5.80;2.70;;;;;;;25.36;89.46;101402.34;5280601;28;20519;-72
2022/09/12 10:57:20;;;;;;;4.75;2.60;;;;;;;25.43;86.90;101401.09;5269139;28;20088;-71
2022/09/12 11:00:09;;;;;;;6.68;2.45;;;;;;;25.30;92.89;101395.94;5269517;28;20031;-71
2022/09/12 11:02:50;;;;;;;6.32;2.33;;;;;;;25.36;91.40;101399.59;5276527;28;20035;-72
2022/09/12 11:05:46;;;;;;;6.10;2.58;;;;;;;25.34;90.32;101391.59;5273370;28;20024;-71
2022/09/12 11:08:35;;;;;;;4.15;2.30;;;;;;;25.51;92.39;101389.69;5281988;28;20028;-72
2022/09/12 11:11:30;;;;;;;3.75;2.25;;;;;;;25.48;88.58;101389.34;5270388;28;20028;-71
2022/09/12 11:14:19;;;;;;;5.18;2.88;;;;;;;25.49;91.69;101391.81;5273970;28;20043;-72
2022/09/12 11:17:15;;;;;;;2.97;2.28;;;;;;;25.50;85.20;101384.41;5283100;28;20034;-72
2022/09/12 11:20:09;;;;;;;4.43;2.72;;;;;;;25.72;88.82;101378.97;5286126;28;20027;-72
2022/09/12 11:22:59;;;;;;;4.18;2.47;;;;;;;25.99;85.04;101368.06;5283653;28;20035;-72
2022/09/12 11:25:42;;;;;;;3.85;2.67;;;;;;;26.13;84.46;101376.75;5259045;28;20024;-72
2022/09/12 11:28:24;;;;;;;4.63;2.15;;;;;;;26.05;85.75;101365.13;5268070;28;20086;-72
2022/09/12 11:31:30;;;;;;;3.55;2.55;;;;;;;25.99;83.32;101363.41;5282364;28;20019;-72
2022/09/12 11:34:08;;;;;;;5.35;2.33;;;;;;;26.23;83.95;101363.13;5281054;28;20380;-72
2022/09/12 11:36:39;;;;;;;2.92;2.13;;;;;;;26.34;79.86;101360.22;5286037;28;20068;-72
2022/09/12 11:39:32;;;;;;;3.45;2.45;;;;;;;26.36;78.26;101368.22;5285937;28;20059;-72
2022/09/12 11:42:06;;;;;;;2.60;2.15;;;;;;;26.33;77.08;101368.75;5285612;28;20572;-72
2022/09/12 11:44:41;;;;;;;3.40;2.30;;;;;;;26.05;79.33;101358.78;5275135;28;20024;-72
2022/09/12 11:47:13;;;;;;;4.85;2.00;;;;;;;26.33;80.77;101355.81;5282732;28;20093;-72
2022/09/12 11:49:49;;;;;;;6.05;2.20;;;;;;;26.51;78.35;101359.34;5273666;28;20024;-72
2022/09/12 11:52:39;;;;;;;3.67;2.30;;;;;;;26.33;77.54;101357.72;5285490;28;20035;-72